createdAt,value
2019-03-04T00:00:19.024Z,0.00
2019-03-04T00:01:19.026Z,0.00
2019-03-04T00:02:19.001Z,0.00
2019-03-04T00:03:18.990Z,0.00
2019-03-04T00:04:18.981Z,0.00
2019-03-04T00:05:18.987Z,0.00
2019-03-04T00:06:18.957Z,0.00
2019-03-04T00:07:18.947Z,0.00
2019-03-04T00:08:18.937Z,0.00
2019-03-04T00:09:18.929Z,0.00
2019-03-04T00:10:18.929Z,0.00
2019-03-04T00:11:18.901Z,0.00
2019-03-04T00:12:18.890Z,0.00
2019-03-04T00:13:18.878Z,0.00
2019-03-04T00:14:18.867Z,0.00
2019-03-04T00:15:18.884Z,0.00
2019-03-04T00:16:18.845Z,0.00
2019-03-04T00:17:18.835Z,0.00
2019-03-04T00:18:18.825Z,0.00
2019-03-04T00:19:18.810Z,0.00
2019-03-04T00:20:18.802Z,0.00
2019-03-04T00:21:19.354Z,0.00
2019-03-04T00:22:18.777Z,0.00
2019-03-04T00:23:18.765Z,0.00
2019-03-04T00:24:18.753Z,0.00
2019-03-04T00:25:18.753Z,0.00
2019-03-04T00:26:18.762Z,0.00
2019-03-04T00:27:18.728Z,0.00
2019-03-04T00:28:18.712Z,0.00
2019-03-04T00:29:18.699Z,0.00
2019-03-04T00:30:18.689Z,0.00
2019-03-04T00:31:18.676Z,0.00
2019-03-04T00:32:18.698Z,0.00
2019-03-04T00:33:18.656Z,0.00
2019-03-04T00:34:18.645Z,0.00
2019-03-04T00:35:18.638Z,0.00
2019-03-04T00:36:18.621Z,0.00
2019-03-04T00:37:18.608Z,0.00
2019-03-04T00:38:18.625Z,0.00
2019-03-04T00:39:18.589Z,0.00
2019-03-04T00:40:18.578Z,0.00
2019-03-04T00:41:18.562Z,0.00
2019-03-04T00:42:18.555Z,0.00
2019-03-04T00:43:18.542Z,0.00
2019-03-04T00:44:18.547Z,0.00
2019-03-04T00:45:18.518Z,0.00
2019-03-04T00:46:18.507Z,0.00
2019-03-04T00:47:18.498Z,0.00
2019-03-04T00:48:18.486Z,0.00
2019-03-04T00:49:18.475Z,0.00
2019-03-04T00:50:18.479Z,0.00
2019-03-04T00:51:18.451Z,0.00
2019-03-04T00:52:18.441Z,0.00
2019-03-04T00:53:18.430Z,0.00
2019-03-04T00:54:18.420Z,0.00
2019-03-04T00:55:18.447Z,0.00
2019-03-04T00:56:18.394Z,0.00
2019-03-04T00:57:18.391Z,0.00
2019-03-04T00:58:18.372Z,0.00
2019-03-04T00:59:18.363Z,0.00
2019-03-04T01:00:18.351Z,0.00
2019-03-04T01:01:18.364Z,0.00
2019-03-04T01:02:18.327Z,0.00
2019-03-04T01:03:18.317Z,0.00
2019-03-04T01:04:18.304Z,0.00
2019-03-04T01:05:18.293Z,0.00
2019-03-04T01:06:18.312Z,0.00
2019-03-04T01:07:18.274Z,0.00
2019-03-04T01:08:18.262Z,0.00
2019-03-04T01:09:18.247Z,0.00
2019-03-04T01:10:18.237Z,0.00
2019-03-04T01:11:18.230Z,0.00
2019-03-04T01:12:18.242Z,0.00
2019-03-04T01:13:18.206Z,0.00
2019-03-04T01:14:18.192Z,0.00
2019-03-04T01:15:18.180Z,0.00
2019-03-04T01:16:18.170Z,0.00
2019-03-04T01:17:18.163Z,0.00
2019-03-04T01:18:18.176Z,0.00
2019-03-04T01:19:18.136Z,0.00
2019-03-04T01:20:18.129Z,0.00
2019-03-04T01:21:18.114Z,0.00
2019-03-04T01:22:18.102Z,0.00
2019-03-04T01:23:18.096Z,0.00
2019-03-04T01:24:18.109Z,0.00
2019-03-04T01:25:18.076Z,0.00
2019-03-04T01:26:18.060Z,0.00
2019-03-04T01:27:18.047Z,0.00
2019-03-04T01:28:18.037Z,0.00
2019-03-04T01:29:18.023Z,0.00
2019-03-04T01:30:18.027Z,0.00
2019-03-04T01:31:18.001Z,0.00
2019-03-04T01:32:17.988Z,0.00
2019-03-04T01:33:17.978Z,0.00
2019-03-04T01:34:17.966Z,0.00
2019-03-04T01:35:17.987Z,0.00
2019-03-04T01:36:17.947Z,0.00
2019-03-04T01:37:17.932Z,0.00
2019-03-04T01:38:17.923Z,0.00
2019-03-04T01:39:17.912Z,0.00
2019-03-04T01:40:17.900Z,0.00
2019-03-04T01:41:17.905Z,0.00
2019-03-04T01:42:17.876Z,0.00
2019-03-04T01:43:17.864Z,0.00
2019-03-04T01:44:17.857Z,0.00
2019-03-04T01:45:17.843Z,0.00
2019-03-04T01:46:17.859Z,0.00
2019-03-04T01:47:17.824Z,0.00
2019-03-04T01:48:17.811Z,0.00
2019-03-04T01:49:17.796Z,0.00
2019-03-04T01:50:17.787Z,0.00
2019-03-04T01:51:17.774Z,0.00
2019-03-04T01:52:17.797Z,0.00
2019-03-04T01:53:17.751Z,0.00
2019-03-04T01:54:17.742Z,0.00
2019-03-04T01:55:17.727Z,0.00
2019-03-04T01:56:17.718Z,0.00
2019-03-04T01:57:17.709Z,0.00
2019-03-04T01:58:17.727Z,0.00
2019-03-04T01:59:17.688Z,0.00
2019-03-04T02:00:17.670Z,0.00
2019-03-04T02:01:17.667Z,0.00
2019-03-04T02:02:17.649Z,0.00
2019-03-04T02:03:17.638Z,0.00
2019-03-04T02:04:17.657Z,0.00
2019-03-04T02:05:17.635Z,0.00
2019-03-04T02:06:17.604Z,0.00
2019-03-04T02:07:17.594Z,0.00
2019-03-04T02:08:17.581Z,0.00
2019-03-04T02:09:17.569Z,0.00
2019-03-04T02:10:17.576Z,0.00
2019-03-04T02:11:17.551Z,0.00
2019-03-04T02:12:17.542Z,0.00
2019-03-04T02:13:17.524Z,0.00
2019-03-04T02:14:17.514Z,0.00
2019-03-04T02:15:17.532Z,0.00
2019-03-04T02:16:17.493Z,0.00
2019-03-04T02:17:17.479Z,0.00
2019-03-04T02:18:17.471Z,0.00
2019-03-04T02:19:17.458Z,0.00
2019-03-04T02:20:17.458Z,0.00
2019-03-04T02:21:17.455Z,0.00
2019-03-04T02:22:17.423Z,0.00
2019-03-04T02:23:17.412Z,0.00
2019-03-04T02:24:17.399Z,0.00
2019-03-04T02:25:17.392Z,0.00
2019-03-04T02:26:17.394Z,0.00
2019-03-04T02:27:17.368Z,0.00
2019-03-04T02:28:17.361Z,0.00
2019-03-04T02:29:17.345Z,0.00
2019-03-04T02:30:17.338Z,0.00
2019-03-04T02:31:17.355Z,0.00
2019-03-04T02:32:17.316Z,0.00
2019-03-04T02:33:17.304Z,0.00
2019-03-04T02:34:17.289Z,0.00
2019-03-04T02:35:17.285Z,0.00
2019-03-04T02:36:17.267Z,0.00
2019-03-04T02:37:17.271Z,0.00
2019-03-04T02:38:17.242Z,0.00
2019-03-04T02:39:17.242Z,0.00
2019-03-04T02:40:17.227Z,0.00
2019-03-04T02:41:17.219Z,0.00
2019-03-04T02:42:17.236Z,0.00
2019-03-04T02:43:17.187Z,0.00
2019-03-04T02:44:17.183Z,0.00
2019-03-04T02:45:17.189Z,0.00
2019-03-04T02:46:17.159Z,0.00
2019-03-04T02:47:17.151Z,0.00
2019-03-04T02:48:17.169Z,0.00
2019-03-04T02:49:17.121Z,0.00
2019-03-04T02:50:17.124Z,0.00
2019-03-04T02:51:17.100Z,0.00
2019-03-04T02:52:17.085Z,0.00
2019-03-04T02:53:17.080Z,0.00
2019-03-04T02:54:17.092Z,0.00
2019-03-04T02:55:17.052Z,0.00
2019-03-04T02:56:17.043Z,0.00
2019-03-04T02:57:17.031Z,0.00
2019-03-04T02:58:17.018Z,0.00
2019-03-04T02:59:17.007Z,0.00
2019-03-04T03:00:17.016Z,0.00
2019-03-04T03:01:16.983Z,0.00
2019-03-04T03:02:16.975Z,0.00
2019-03-04T03:03:16.974Z,0.00
2019-03-04T03:04:17.004Z,0.00
2019-03-04T03:05:16.973Z,0.00
2019-03-04T03:06:16.931Z,0.00
2019-03-04T03:07:16.917Z,0.00
2019-03-04T03:08:17.904Z,0.00
2019-03-04T03:09:16.895Z,0.00
2019-03-04T03:10:16.890Z,0.00
2019-03-04T03:11:16.888Z,0.00
2019-03-04T03:12:16.866Z,0.00
2019-03-04T03:13:16.849Z,0.00
2019-03-04T03:14:16.847Z,0.00
2019-03-04T03:15:16.845Z,0.00
2019-03-04T03:16:16.844Z,0.00
2019-03-04T03:17:16.806Z,0.00
2019-03-04T03:18:16.792Z,0.00
2019-03-04T03:19:16.780Z,0.00
2019-03-04T03:20:16.785Z,0.00
2019-03-04T03:21:16.766Z,0.00
2019-03-04T03:22:16.784Z,0.00
2019-03-04T03:23:16.740Z,0.00
2019-03-04T03:24:16.725Z,0.00
2019-03-04T03:25:16.719Z,0.00
2019-03-04T03:26:16.709Z,0.00
2019-03-04T03:27:16.696Z,0.00
2019-03-04T03:28:16.712Z,0.00
2019-03-04T03:29:16.666Z,0.00
2019-03-04T03:30:16.664Z,0.00
2019-03-04T03:31:16.649Z,0.00
2019-03-04T03:32:16.635Z,0.00
2019-03-04T03:33:16.626Z,0.00
2019-03-04T03:34:16.637Z,0.00
2019-03-04T03:35:16.600Z,0.00
2019-03-04T03:36:16.589Z,0.00
2019-03-04T03:37:16.581Z,0.00
2019-03-04T03:38:16.565Z,0.00
2019-03-04T03:39:16.556Z,0.00
2019-03-04T03:40:16.574Z,0.00
2019-03-04T03:41:16.530Z,0.00
2019-03-04T03:42:18.857Z,0.00
2019-03-04T03:43:16.571Z,0.00
2019-03-04T03:44:16.496Z,0.00
2019-03-04T03:45:16.516Z,0.00
2019-03-04T03:46:16.474Z,0.00
2019-03-04T03:47:16.460Z,0.00
2019-03-04T03:48:16.458Z,0.00
2019-03-04T03:49:16.440Z,0.00
2019-03-04T03:50:16.433Z,0.00
2019-03-04T03:51:16.437Z,0.00
2019-03-04T03:52:16.404Z,0.00
2019-03-04T03:53:16.392Z,0.00
2019-03-04T03:54:16.385Z,0.00
2019-03-04T03:55:16.371Z,0.00
2019-03-04T03:56:16.391Z,0.00
2019-03-04T03:57:16.372Z,0.00
2019-03-04T03:58:16.345Z,0.00
2019-03-04T03:59:16.329Z,0.00
2019-03-04T04:00:16.329Z,0.00
2019-03-04T04:01:16.319Z,0.00
2019-03-04T04:02:16.319Z,0.00
2019-03-04T04:03:16.284Z,0.00
2019-03-04T04:04:16.272Z,0.00
2019-03-04T04:05:16.260Z,0.00
2019-03-04T04:06:16.249Z,0.00
2019-03-04T04:07:16.234Z,0.00
2019-03-04T04:08:16.250Z,0.00
2019-03-04T04:09:16.216Z,0.00
2019-03-04T04:10:16.199Z,0.00
2019-03-04T04:11:16.191Z,0.00
2019-03-04T04:12:16.179Z,0.00
2019-03-04T04:13:16.170Z,0.00
2019-03-04T04:14:16.183Z,0.00
2019-03-04T04:15:16.145Z,0.00
2019-03-04T04:16:16.133Z,0.00
2019-03-04T04:17:16.121Z,0.00
2019-03-04T04:18:16.110Z,0.00
2019-03-04T04:19:16.109Z,0.00
2019-03-04T04:20:16.104Z,0.00
2019-03-04T04:21:16.080Z,0.00
2019-03-04T04:22:16.065Z,0.00
2019-03-04T04:23:18.904Z,0.00
2019-03-04T04:24:16.046Z,0.00
2019-03-04T04:25:16.058Z,0.00
2019-03-04T04:26:16.023Z,0.00
2019-03-04T04:27:16.008Z,0.00
2019-03-04T04:28:15.999Z,0.00
2019-03-04T04:29:15.984Z,0.00
2019-03-04T04:30:15.976Z,0.00
2019-03-04T04:31:15.982Z,0.00
2019-03-04T04:32:15.952Z,0.00
2019-03-04T04:33:15.944Z,0.00
2019-03-04T04:34:15.931Z,0.00
2019-03-04T04:35:15.917Z,0.00
2019-03-04T04:36:15.935Z,0.00
2019-03-04T04:37:18.420Z,0.00
2019-03-04T04:38:15.881Z,0.00
2019-03-04T04:39:15.870Z,0.00
2019-03-04T04:40:15.863Z,0.00
2019-03-04T04:41:15.855Z,0.00
2019-03-04T04:42:15.853Z,0.00
2019-03-04T04:43:15.824Z,0.00
2019-03-04T04:44:15.816Z,0.00
2019-03-04T04:45:15.801Z,0.00
2019-03-04T04:46:15.808Z,0.00
2019-03-04T04:47:15.781Z,0.00
2019-03-04T04:48:15.772Z,0.00
2019-03-04T04:49:15.757Z,0.00
2019-03-04T04:50:15.747Z,0.00
2019-03-04T04:51:15.761Z,0.00
2019-03-04T04:52:15.722Z,0.00
2019-03-04T04:53:15.715Z,0.00
2019-03-04T04:54:15.700Z,0.00
2019-03-04T04:55:15.688Z,0.00
2019-03-04T04:56:15.680Z,0.00
2019-03-04T04:57:15.685Z,0.00
2019-03-04T04:58:15.655Z,0.00
2019-03-04T04:59:15.645Z,0.00
2019-03-04T05:00:15.632Z,0.00
2019-03-04T05:01:15.622Z,0.00
2019-03-04T05:02:15.635Z,0.00
2019-03-04T05:03:15.601Z,0.00
2019-03-04T05:04:15.592Z,0.00
2019-03-04T05:05:15.575Z,0.00
2019-03-04T05:06:15.562Z,0.00
2019-03-04T05:07:15.550Z,0.00
2019-03-04T05:08:15.558Z,0.00
2019-03-04T05:09:15.533Z,0.00
2019-03-04T05:10:15.517Z,0.00
2019-03-04T05:11:15.510Z,0.00
2019-03-04T05:12:15.496Z,0.00
2019-03-04T05:13:15.510Z,0.00
2019-03-04T05:14:15.474Z,0.00
2019-03-04T05:15:15.463Z,0.00
2019-03-04T05:16:15.448Z,0.00
2019-03-04T05:17:15.439Z,0.00
2019-03-04T05:18:15.427Z,0.00
2019-03-04T05:19:15.432Z,0.00
2019-03-04T05:20:15.403Z,0.00
2019-03-04T05:21:15.396Z,0.00
2019-03-04T05:22:15.381Z,0.00
2019-03-04T05:23:15.373Z,0.00
2019-03-04T05:24:15.377Z,0.00
2019-03-04T05:25:15.350Z,0.00
2019-03-04T05:26:15.336Z,0.00
2019-03-04T05:27:15.324Z,0.00
2019-03-04T05:28:15.312Z,0.00
2019-03-04T05:29:15.328Z,0.00
2019-03-04T05:30:15.290Z,0.00
2019-03-04T05:31:15.283Z,0.00
2019-03-04T05:32:15.277Z,0.00
2019-03-04T05:33:15.260Z,4.00
2019-03-04T05:34:15.244Z,4.00
2019-03-04T05:35:15.252Z,4.00
2019-03-04T05:36:15.222Z,4.00
2019-03-04T05:37:15.211Z,4.00
2019-03-04T05:38:15.201Z,4.00
2019-03-04T05:39:15.190Z,4.00
2019-03-04T05:40:15.193Z,8.00
2019-03-04T05:41:15.168Z,8.00
2019-03-04T05:42:15.152Z,8.00
2019-03-04T05:43:15.142Z,12.00
2019-03-04T05:44:15.130Z,12.00
2019-03-04T05:45:15.153Z,12.00
2019-03-04T05:46:15.109Z,16.00
2019-03-04T05:47:15.099Z,16.00
2019-03-04T05:48:15.084Z,16.00
2019-03-04T05:49:15.076Z,20.00
2019-03-04T05:50:15.065Z,24.00
2019-03-04T05:51:15.076Z,24.00
2019-03-04T05:52:15.039Z,28.00
2019-03-04T05:53:15.027Z,28.00
2019-03-04T05:54:15.927Z,32.00
2019-03-04T05:55:15.010Z,36.00
2019-03-04T05:56:15.010Z,36.00
2019-03-04T05:57:14.986Z,32.00
2019-03-04T05:58:14.976Z,32.00
2019-03-04T05:59:19.622Z,32.00
2019-03-04T06:00:15.949Z,28.00
2019-03-04T06:01:14.958Z,28.00
2019-03-04T06:02:14.928Z,28.00
2019-03-04T06:03:14.916Z,32.00
2019-03-04T06:04:14.904Z,32.00
2019-03-04T06:05:14.893Z,36.00
2019-03-04T06:06:14.907Z,40.00
2019-03-04T06:07:14.870Z,44.00
2019-03-04T06:08:14.857Z,44.00
2019-03-04T06:09:14.846Z,44.00
2019-03-04T06:10:14.843Z,48.00
2019-03-04T06:11:14.825Z,52.00
2019-03-04T06:12:14.829Z,56.00
2019-03-04T06:13:14.801Z,56.00
2019-03-04T06:14:14.792Z,56.00
2019-03-04T06:15:14.776Z,56.00
2019-03-04T06:16:14.767Z,60.00
2019-03-04T06:17:14.785Z,72.00
2019-03-04T06:18:14.749Z,76.00
2019-03-04T06:19:14.733Z,92.00
2019-03-04T06:20:14.731Z,104.00
2019-03-04T06:21:14.712Z,120.00
2019-03-04T06:22:14.699Z,132.00
2019-03-04T06:23:14.705Z,152.00
2019-03-04T06:24:14.679Z,188.00
2019-03-04T06:25:14.664Z,264.00
2019-03-04T06:26:14.658Z,308.00
2019-03-04T06:27:14.644Z,352.00
2019-03-04T06:28:14.661Z,384.00
2019-03-04T06:29:14.622Z,428.00
2019-03-04T06:30:14.609Z,512.00
2019-03-04T06:31:14.598Z,580.00
2019-03-04T06:32:14.588Z,656.00
2019-03-04T06:33:14.578Z,728.00
2019-03-04T06:34:14.584Z,824.00
2019-03-04T06:35:14.557Z,868.00
2019-03-04T06:36:14.544Z,848.00
2019-03-04T06:37:14.534Z,792.00
2019-03-04T06:38:14.521Z,784.00
2019-03-04T06:39:14.537Z,844.00
2019-03-04T06:40:14.500Z,876.00
2019-03-04T06:41:14.488Z,844.00
2019-03-04T06:42:14.479Z,800.00
2019-03-04T06:43:14.465Z,728.00
2019-03-04T06:44:14.453Z,668.00
2019-03-04T06:45:14.458Z,616.00
2019-03-04T06:46:14.430Z,680.00
2019-03-04T06:47:14.424Z,520.00
2019-03-04T06:48:14.407Z,476.00
2019-03-04T06:49:14.400Z,404.00
2019-03-04T06:50:14.416Z,348.00
2019-03-04T06:51:14.376Z,300.00
2019-03-04T06:52:14.363Z,272.00
2019-03-04T06:53:14.354Z,256.00
2019-03-04T06:54:14.340Z,236.00
2019-03-04T06:55:14.331Z,216.00
2019-03-04T06:56:14.336Z,188.00
2019-03-04T06:57:14.308Z,168.00
2019-03-04T06:58:14.298Z,168.00
2019-03-04T06:59:14.285Z,168.00
2019-03-04T07:00:14.277Z,160.00
2019-03-04T07:01:14.293Z,172.00
2019-03-04T07:02:14.252Z,188.00
2019-03-04T07:03:14.944Z,208.00
2019-03-04T07:04:14.235Z,216.00
2019-03-04T07:05:14.218Z,252.00
2019-03-04T07:06:14.205Z,300.00
2019-03-04T07:07:14.212Z,344.00
2019-03-04T07:08:14.184Z,368.00
2019-03-04T07:09:14.178Z,364.00
2019-03-04T07:10:14.165Z,360.00
2019-03-04T07:11:14.153Z,368.00
2019-03-04T07:12:14.155Z,360.00
2019-03-04T07:13:14.127Z,352.00
2019-03-04T07:14:14.119Z,332.00
2019-03-04T07:15:14.104Z,324.00
2019-03-04T07:16:14.099Z,328.00
2019-03-04T07:17:14.940Z,332.00
2019-03-04T07:18:14.070Z,376.00
2019-03-04T07:19:14.060Z,436.00
2019-03-04T07:20:14.047Z,484.00
2019-03-04T07:21:14.038Z,528.00
2019-03-04T07:22:14.043Z,584.00
2019-03-04T07:23:14.016Z,636.00
2019-03-04T07:24:14.003Z,668.00
2019-03-04T07:25:13.992Z,652.00
2019-03-04T07:26:13.981Z,664.00
2019-03-04T07:27:13.995Z,688.00
2019-03-04T07:28:13.959Z,676.00
2019-03-04T07:29:15.096Z,708.00
2019-03-04T07:30:13.940Z,812.00
2019-03-04T07:31:13.930Z,812.00
2019-03-04T07:32:13.911Z,776.00
2019-03-04T07:33:13.918Z,828.00
2019-03-04T07:34:13.890Z,820.00
2019-03-04T07:35:13.878Z,848.00
2019-03-04T07:36:13.867Z,916.00
2019-03-04T07:37:13.858Z,1004.00
2019-03-04T07:38:13.879Z,1000.00
2019-03-04T07:39:13.839Z,1004.00
2019-03-04T07:40:16.376Z,1160.00
2019-03-04T07:41:13.809Z,1264.00
2019-03-04T07:42:13.804Z,1344.00
2019-03-04T07:43:13.787Z,1188.00
2019-03-04T07:44:13.794Z,1172.00
2019-03-04T07:45:13.762Z,1072.00
2019-03-04T07:46:13.748Z,1140.00
2019-03-04T07:47:13.787Z,1232.00
2019-03-04T07:48:13.734Z,1352.00
2019-03-04T07:49:13.754Z,1364.00
2019-03-04T07:50:13.711Z,1344.00
2019-03-04T07:51:13.698Z,1340.00
2019-03-04T07:52:13.684Z,1524.00
2019-03-04T07:53:13.678Z,1624.00
2019-03-04T07:54:13.723Z,1528.00
2019-03-04T07:55:13.666Z,1712.00
2019-03-04T07:56:13.645Z,1656.00
2019-03-04T07:57:13.628Z,1652.00
2019-03-04T07:58:13.615Z,1584.00
2019-03-04T07:59:13.609Z,1672.00
2019-03-04T08:00:13.674Z,1804.00
2019-03-04T08:01:13.589Z,1916.00
2019-03-04T08:02:13.575Z,1984.00
2019-03-04T08:03:13.560Z,2296.00
2019-03-04T08:04:13.548Z,2884.00
2019-03-04T08:05:13.569Z,2108.00
2019-03-04T08:06:13.540Z,2936.00
2019-03-04T08:07:13.518Z,2288.00
2019-03-04T08:08:13.508Z,2344.00
2019-03-04T08:09:13.491Z,2472.00
2019-03-04T08:10:13.483Z,2336.00
2019-03-04T08:11:13.489Z,2340.00
2019-03-04T08:12:13.458Z,2292.00
2019-03-04T08:13:13.446Z,1768.00
2019-03-04T08:14:13.471Z,1308.00
2019-03-04T08:15:13.424Z,1092.00
2019-03-04T08:16:13.427Z,968.00
2019-03-04T08:17:13.405Z,892.00
2019-03-04T08:18:13.392Z,888.00
2019-03-04T08:19:13.381Z,920.00
2019-03-04T08:20:13.371Z,964.00
2019-03-04T08:21:13.376Z,944.00
2019-03-04T08:22:13.345Z,1012.00
2019-03-04T08:23:13.362Z,1068.00
2019-03-04T08:24:13.325Z,1004.00
2019-03-04T08:25:13.317Z,996.00
2019-03-04T08:26:13.335Z,972.00
2019-03-04T08:27:13.291Z,976.00
2019-03-04T08:28:13.277Z,1032.00
2019-03-04T08:29:13.268Z,1124.00
2019-03-04T08:30:13.255Z,1184.00
2019-03-04T08:31:13.251Z,1320.00
2019-03-04T08:32:13.250Z,1452.00
2019-03-04T08:33:13.223Z,1516.00
2019-03-04T08:34:13.216Z,1516.00
2019-03-04T08:35:13.197Z,1620.00
2019-03-04T08:36:13.197Z,1608.00
2019-03-04T08:37:13.218Z,1476.00
2019-03-04T08:38:13.165Z,1460.00
2019-03-04T08:39:13.151Z,1540.00
2019-03-04T08:40:13.143Z,2260.00
2019-03-04T08:41:13.136Z,2576.00
2019-03-04T08:42:13.119Z,3168.00
2019-03-04T08:43:13.125Z,4388.00
2019-03-04T08:44:13.096Z,3992.00
2019-03-04T08:45:13.083Z,3920.00
2019-03-04T08:46:13.076Z,3088.00
2019-03-04T08:47:13.062Z,2652.00
2019-03-04T08:48:13.087Z,3904.00
2019-03-04T08:49:13.041Z,2396.00
2019-03-04T08:50:13.029Z,1920.00
2019-03-04T08:51:13.016Z,2204.00
2019-03-04T08:52:13.007Z,1976.00
2019-03-04T08:53:12.993Z,2092.00
2019-03-04T08:54:13.002Z,1544.00
2019-03-04T08:55:12.973Z,2072.00
2019-03-04T08:56:12.964Z,1984.00
2019-03-04T08:57:12.950Z,3680.00
2019-03-04T08:58:12.944Z,7668.00
2019-03-04T08:59:12.945Z,3044.00
2019-03-04T09:00:12.918Z,5068.00
2019-03-04T09:01:12.908Z,11464.00
2019-03-04T09:02:12.894Z,9912.00
2019-03-04T09:03:12.892Z,3364.00
2019-03-04T09:04:12.973Z,2464.00
2019-03-04T09:05:12.869Z,1848.00
2019-03-04T09:06:12.850Z,2148.00
2019-03-04T09:07:12.840Z,2584.00
2019-03-04T09:08:12.830Z,3532.00
2019-03-04T09:09:12.825Z,2852.00
2019-03-04T09:10:12.826Z,2728.00
2019-03-04T09:11:12.796Z,2168.00
2019-03-04T09:12:12.785Z,12744.00
2019-03-04T09:13:12.772Z,9864.00
2019-03-04T09:14:12.760Z,12720.00
2019-03-04T09:15:12.778Z,3672.00
2019-03-04T09:16:12.741Z,11588.00
2019-03-04T09:17:12.733Z,11348.00
2019-03-04T09:18:12.717Z,11500.00
2019-03-04T09:19:12.703Z,11576.00
2019-03-04T09:20:12.692Z,12860.00
2019-03-04T09:21:12.697Z,3052.00
2019-03-04T09:22:12.669Z,2216.00
2019-03-04T09:23:12.660Z,2120.00
2019-03-04T09:24:12.651Z,2708.00
2019-03-04T09:25:12.634Z,11368.00
2019-03-04T09:26:12.641Z,11920.00
2019-03-04T09:27:12.612Z,6048.00
2019-03-04T09:28:12.603Z,12932.00
2019-03-04T09:29:12.593Z,12388.00
2019-03-04T09:30:12.577Z,12280.00
2019-03-04T09:31:12.596Z,12808.00
2019-03-04T09:32:12.554Z,12440.00
2019-03-04T09:33:12.545Z,8076.00
2019-03-04T09:34:12.535Z,12124.00
2019-03-04T09:35:12.526Z,8912.00
2019-03-04T09:36:12.512Z,2176.00
2019-03-04T09:37:12.519Z,2636.00
2019-03-04T09:38:12.490Z,4980.00
2019-03-04T09:39:12.477Z,4724.00
2019-03-04T09:40:12.470Z,3456.00
2019-03-04T09:41:12.459Z,3580.00
2019-03-04T09:42:12.473Z,4304.00
2019-03-04T09:43:12.433Z,4108.00
2019-03-04T09:44:12.420Z,3588.00
2019-03-04T09:45:12.411Z,5800.00
2019-03-04T09:46:12.398Z,12992.00
2019-03-04T09:47:12.393Z,13440.00
2019-03-04T09:48:12.395Z,13952.00
2019-03-04T09:49:12.363Z,12828.00
2019-03-04T09:50:12.354Z,12312.00
2019-03-04T09:51:12.343Z,12020.00
2019-03-04T09:52:12.334Z,12032.00
2019-03-04T09:53:12.338Z,12024.00
2019-03-04T09:54:12.308Z,13312.00
2019-03-04T09:55:12.301Z,2420.00
2019-03-04T09:56:12.286Z,2212.00
2019-03-04T09:57:12.275Z,2620.00
2019-03-04T09:58:12.294Z,3300.00
2019-03-04T09:59:12.253Z,3032.00
2019-03-04T10:00:12.245Z,2600.00
2019-03-04T10:01:12.231Z,2344.00
2019-03-04T10:02:12.219Z,2040.00
2019-03-04T10:03:12.207Z,2192.00
2019-03-04T10:04:12.214Z,2096.00
2019-03-04T10:05:13.411Z,1768.00
2019-03-04T10:06:12.174Z,1712.00
2019-03-04T10:07:12.163Z,1648.00
2019-03-04T10:08:12.152Z,1568.00
2019-03-04T10:09:12.168Z,1612.00
2019-03-04T10:10:12.129Z,1592.00
2019-03-04T10:11:12.119Z,1860.00
2019-03-04T10:12:12.113Z,2176.00
2019-03-04T10:13:12.095Z,2284.00
2019-03-04T10:14:12.084Z,1972.00
2019-03-04T10:15:12.092Z,2560.00
2019-03-04T10:16:18.788Z,8460.00
2019-03-04T10:17:13.049Z,3512.00
2019-03-04T10:18:12.039Z,2560.00
2019-03-04T10:19:12.029Z,3068.00
2019-03-04T10:20:12.048Z,2776.00
2019-03-04T10:21:12.007Z,3356.00
2019-03-04T10:22:11.997Z,4848.00
2019-03-04T10:23:11.984Z,6696.00
2019-03-04T10:24:11.971Z,12776.00
2019-03-04T10:25:11.963Z,13416.00
2019-03-04T10:26:21.886Z,10212.00
2019-03-04T10:27:12.939Z,6120.00
2019-03-04T10:28:11.927Z,3496.00
2019-03-04T10:29:11.917Z,2520.00
2019-03-04T10:30:11.906Z,2556.00
2019-03-04T10:31:11.919Z,2428.00
2019-03-04T10:32:11.896Z,2272.00
2019-03-04T10:33:11.871Z,2416.00
2019-03-04T10:34:11.860Z,2224.00
2019-03-04T10:35:11.850Z,2140.00
2019-03-04T10:36:11.834Z,2280.00
2019-03-04T10:37:11.842Z,2388.00
2019-03-04T10:38:11.813Z,2728.00
2019-03-04T10:39:11.800Z,3944.00
2019-03-04T10:40:11.794Z,8332.00
2019-03-04T10:41:11.782Z,4736.00
2019-03-04T10:42:12.004Z,13044.00
2019-03-04T10:43:11.760Z,47840.00
2019-03-04T10:44:11.745Z,48064.00
2019-03-04T10:45:11.733Z,37696.00
2019-03-04T10:46:11.724Z,5304.00
2019-03-04T10:47:12.009Z,15936.00
2019-03-04T10:48:11.706Z,31360.00
2019-03-04T10:49:11.694Z,4504.00
2019-03-04T10:50:11.678Z,6124.00
2019-03-04T10:51:11.668Z,3588.00
2019-03-04T10:52:11.682Z,3004.00
2019-03-04T10:53:11.644Z,3248.00
2019-03-04T10:54:11.635Z,3780.00
2019-03-04T10:55:11.623Z,4528.00
2019-03-04T10:56:11.612Z,3948.00
2019-03-04T10:57:11.600Z,6776.00
2019-03-04T10:58:11.606Z,21920.00
2019-03-04T10:59:11.581Z,4968.00
2019-03-04T11:00:11.566Z,3940.00
2019-03-04T11:01:11.560Z,5092.00
2019-03-04T11:02:11.544Z,4176.00
2019-03-04T11:03:11.564Z,5700.00
2019-03-04T11:04:11.523Z,57536.00
2019-03-04T11:05:11.516Z,57280.00
2019-03-04T11:06:11.501Z,10200.00
2019-03-04T11:07:11.486Z,4256.00
2019-03-04T11:08:11.476Z,1800.00
2019-03-04T11:09:11.484Z,1436.00
2019-03-04T11:10:11.453Z,5760.00
2019-03-04T11:11:11.443Z,2528.00
2019-03-04T11:12:11.431Z,1492.00
2019-03-04T11:13:11.422Z,1048.00
2019-03-04T11:14:11.432Z,820.00
2019-03-04T11:15:11.401Z,636.00
2019-03-04T11:16:11.387Z,536.00
2019-03-04T11:17:11.375Z,452.00
2019-03-04T11:18:11.363Z,372.00
2019-03-04T11:19:11.379Z,316.00
2019-03-04T11:20:11.346Z,308.00
2019-03-04T11:21:11.332Z,404.00
2019-03-04T11:22:11.321Z,460.00
2019-03-04T11:23:11.307Z,728.00
2019-03-04T11:24:11.296Z,1204.00
2019-03-04T11:25:11.302Z,3072.00
2019-03-04T11:26:11.274Z,2872.00
2019-03-04T11:27:11.262Z,2068.00
2019-03-04T11:28:11.249Z,1620.00
2019-03-04T11:29:13.263Z,1004.00
2019-03-04T11:30:11.258Z,636.00
2019-03-04T11:31:11.218Z,684.00
2019-03-04T11:32:11.207Z,680.00
2019-03-04T11:33:11.192Z,800.00
2019-03-04T11:34:11.182Z,1024.00
2019-03-04T11:35:11.177Z,1332.00
2019-03-04T11:36:11.182Z,1512.00
2019-03-04T11:37:11.149Z,1492.00
2019-03-04T11:38:11.138Z,2024.00
2019-03-04T11:39:11.126Z,2168.00
2019-03-04T11:40:11.115Z,2360.00
2019-03-04T11:41:11.131Z,2028.00
2019-03-04T11:42:11.094Z,1796.00
2019-03-04T11:43:11.129Z,1392.00
2019-03-04T11:44:11.072Z,2004.00
2019-03-04T11:45:11.060Z,2092.00
2019-03-04T11:46:11.049Z,1460.00
2019-03-04T11:47:11.059Z,1432.00
2019-03-04T11:48:11.027Z,1352.00
2019-03-04T11:49:11.016Z,2680.00
2019-03-04T11:50:11.006Z,3896.00
2019-03-04T11:51:10.997Z,3692.00
2019-03-04T11:52:10.997Z,3392.00
2019-03-04T11:53:10.975Z,3020.00
2019-03-04T11:54:10.966Z,2772.00
2019-03-04T11:55:10.959Z,2692.00
2019-03-04T11:56:10.946Z,2892.00
2019-03-04T11:57:10.956Z,2940.00
2019-03-04T11:58:10.917Z,2876.00
2019-03-04T11:59:10.908Z,2732.00
2019-03-04T12:00:10.896Z,2836.00
2019-03-04T12:01:10.882Z,2948.00
2019-03-04T12:02:10.871Z,2988.00
2019-03-04T12:03:10.882Z,2984.00
2019-03-04T12:04:10.854Z,2852.00
2019-03-04T12:05:10.838Z,2848.00
2019-03-04T12:06:10.832Z,2888.00
2019-03-04T12:07:10.815Z,2796.00
2019-03-04T12:08:10.832Z,2580.00
2019-03-04T12:09:10.794Z,1988.00
2019-03-04T12:10:10.782Z,2028.00
2019-03-04T12:11:10.770Z,2252.00
2019-03-04T12:12:10.761Z,2348.00
2019-03-04T12:13:10.747Z,2376.00
2019-03-04T12:14:10.758Z,2608.00
2019-03-04T12:15:10.728Z,2792.00
2019-03-04T12:16:10.718Z,2960.00
2019-03-04T12:17:10.707Z,3116.00
2019-03-04T12:18:10.691Z,3168.00
2019-03-04T12:19:10.696Z,3216.00
2019-03-04T12:20:10.675Z,3112.00
2019-03-04T12:21:10.656Z,3032.00
2019-03-04T12:22:10.653Z,3040.00
2019-03-04T12:23:10.634Z,3004.00
2019-03-04T12:24:10.654Z,2948.00
2019-03-04T12:25:10.612Z,2924.00
2019-03-04T12:26:10.603Z,2952.00
2019-03-04T12:27:10.594Z,2976.00
2019-03-04T12:28:10.589Z,2936.00
2019-03-04T12:29:10.566Z,2964.00
2019-03-04T12:30:10.572Z,2912.00
2019-03-04T12:31:10.545Z,2832.00
2019-03-04T12:32:10.535Z,2824.00
2019-03-04T12:33:10.523Z,2716.00
2019-03-04T12:34:10.513Z,2672.00
2019-03-04T12:35:10.529Z,2616.00
2019-03-04T12:36:10.488Z,2596.00
2019-03-04T12:37:10.477Z,2612.00
2019-03-04T12:38:10.467Z,2500.00
2019-03-04T12:39:10.456Z,2400.00
2019-03-04T12:40:10.443Z,2320.00
2019-03-04T12:41:10.448Z,2312.00